ΕΜΥ, Εθνική Μετεωρολογική Υπηρεσία - Δελτία Καιρού, Προγνώσεις

ΑΕΡΟΝΑΥΤΙΛΙΑ

GREEK AIRPORTS CODES

LGTY 270700Z 09005KT 9999 FEW018 15/11 Q1011 RMK BKN170=

EUROPEAN AIRPORTS CODES

LFPO 270800Z 16014KT 130V190 3000 -RA BR BKN005 OVC011 04/03Q0995 RERA TEMPO 1200 RA=